Time;durP1;ratioP1;P1;durP2;ratioP2;P2;SDS_P1;SDS_P2;PMS_P1;PMS_P2;Temp;Humidity;BMP_temperature;BMP_pressure;BME280_temperature;BME280_humidity;BME280_pressure;Samples;Min_cycle;Max_cycle;Signal;HPM_P1;HPM_P2
2022/09/12 00:01:21;;;;;;;12.60;11.07;;;18.20;99.90;;;;;;4997367;28;20091;-91
2022/09/12 00:03:51;;;;;;;12.77;11.23;;;18.20;99.90;;;;;;4997435;28;20061;-90
2022/09/12 00:06:25;;;;;;;11.90;10.10;;;18.20;99.90;;;;;;5010394;28;20030;-93
2022/09/12 00:08:53;;;;;;;12.43;11.13;;;18.20;99.90;;;;;;5012769;28;20045;-91
2022/09/12 00:11:19;;;;;;;13.68;10.48;;;18.10;99.90;;;;;;5012295;28;20061;-92
2022/09/12 00:13:47;;;;;;;12.77;10.63;;;18.10;99.90;;;;;;5008214;28;20026;-92
2022/09/12 00:16:24;;;;;;;13.38;11.25;;;18.10;99.90;;;;;;5010990;28;20030;-92
2022/09/12 00:18:53;;;;;;;12.65;10.52;;;18.00;99.90;;;;;;5006592;28;20058;-92
2022/09/12 00:21:20;;;;;;;12.57;10.70;;;18.00;99.90;;;;;;4983409;28;20018;-92
2022/09/12 00:23:46;;;;;;;14.13;12.15;;;18.00;99.90;;;;;;4980018;28;20057;-92
2022/09/12 00:26:12;;;;;;;12.43;11.18;;;18.00;99.90;;;;;;4996263;28;20030;-92
2022/09/12 00:28:40;;;;;;;14.32;11.57;;;17.90;99.90;;;;;;4994951;28;20026;-92
2022/09/12 00:31:19;;;;;;;11.48;10.32;;;17.90;99.90;;;;;;4995080;28;20109;-92
2022/09/12 00:33:45;;;;;;;12.43;11.05;;;17.90;99.90;;;;;;4995023;28;20080;-92
2022/09/12 00:36:17;;;;;;;13.13;11.40;;;17.90;99.90;;;;;;4994558;28;20031;-93
2022/09/12 00:38:44;;;;;;;13.02;11.65;;;17.80;99.90;;;;;;4994898;28;20023;-91
2022/09/12 00:41:35;;;;;;;15.13;11.35;;;17.80;99.90;;;;;;4994622;28;20026;-92
2022/09/12 00:44:22;;;;;;;14.05;11.27;;;17.80;99.90;;;;;;4973163;28;20034;-92
2022/09/12 00:47:09;;;;;;;12.88;10.98;;;17.80;99.90;;;;;;4994084;28;20034;-92
2022/09/12 00:49:45;;;;;;;13.32;11.57;;;17.70;99.90;;;;;;4994911;28;20072;-91
2022/09/12 00:52:17;;;;;;;14.77;11.75;;;17.70;99.90;;;;;;4994713;28;20105;-91
2022/09/12 00:54:58;;;;;;;13.25;10.25;;;17.70;99.90;;;;;;4996052;28;20356;-93
2022/09/12 00:57:31;;;;;;;12.20;10.90;;;17.70;99.90;;;;;;4994809;28;20093;-93
2022/09/12 01:00:24;;;;;;;13.68;11.93;;;17.60;99.90;;;;;;4994344;28;20053;-92
2022/09/12 01:02:57;;;;;;;12.45;11.15;;;17.60;99.90;;;;;;4977272;28;20046;-92
2022/09/12 01:05:25;;;;;;;14.02;11.82;;;17.60;99.90;;;;;;4996552;28;20466;-92
2022/09/12 01:07:52;;;;;;;15.13;11.93;;;17.50;99.90;;;;;;4994858;28;20029;-92
2022/09/12 01:10:18;;;;;;;14.65;12.18;;;17.60;99.90;;;;;;4993817;28;20026;-90
2022/09/12 01:12:45;;;;;;;14.27;12.30;;;17.50;99.90;;;;;;4994344;28;20072;-91
2022/09/12 01:15:11;;;;;;;17.52;13.07;;;17.50;99.90;;;;;;4993721;28;20022;-92
2022/09/12 01:18:03;;;;;;;14.98;13.13;;;17.50;99.90;;;;;;4995560;28;20169;-93
2022/09/12 01:20:59;;;;;;;15.52;13.93;;;17.40;99.90;;;;;;4977368;28;20053;-92
2022/09/12 01:24:01;;;;;;;15.55;13.65;;;17.40;99.90;;;;;;4994503;28;20026;-93
2022/09/12 01:26:48;;;;;;;15.13;13.52;;;17.40;99.90;;;;;;4995533;28;20105;-91
2022/09/12 01:29:52;;;;;;;15.32;13.73;;;17.40;99.90;;;;;;4994506;28;20027;-92
2022/09/12 01:32:37;;;;;;;15.70;13.88;;;17.30;99.90;;;;;;4979471;28;20026;-92
2022/09/12 01:35:21;;;;;;;17.70;13.95;;;17.30;99.90;;;;;;5003617;28;20022;-91
2022/09/12 01:38:14;;;;;;;16.08;14.07;;;17.30;99.90;;;;;;5006521;28;20147;-92
2022/09/12 01:41:04;;;;;;;17.65;14.68;;;17.20;99.90;;;;;;5006690;28;20031;-92
2022/09/12 01:43:50;;;;;;;16.58;14.82;;;17.20;99.90;;;;;;4987128;28;20116;-92
2022/09/12 01:46:42;;;;;;;19.77;15.90;;;17.20;99.90;;;;;;4999022;28;20546;-92
2022/09/12 01:49:13;;;;;;;18.27;15.20;;;17.20;99.90;;;;;;4999230;28;20156;-93
2022/09/12 01:52:11;;;;;;;19.70;16.55;;;17.20;99.90;;;;;;4998110;28;20033;-93
2022/09/12 01:55:05;;;;;;;20.17;16.67;;;17.20;99.90;;;;;;4978890;28;20088;-93
2022/09/12 01:57:36;;;;;;;21.42;17.15;;;17.10;99.90;;;;;;4997922;28;20076;-93
2022/09/12 02:00:08;;;;;;;18.85;16.63;;;17.10;99.90;;;;;;4998700;28;20022;-93
2022/09/12 02:03:01;;;;;;;18.77;15.75;;;17.10;99.90;;;;;;4999414;28;20113;-93
2022/09/12 02:05:35;;;;;;;17.98;15.90;;;17.10;99.90;;;;;;4997966;28;20117;-92
2022/09/12 02:08:16;;;;;;;18.83;15.93;;;17.10;99.90;;;;;;4998275;28;20029;-93
2022/09/12 02:11:03;;;;;;;19.83;15.52;;;17.10;99.90;;;;;;4999267;28;20026;-94
2022/09/12 02:13:46;;;;;;;18.33;16.33;;;17.10;99.90;;;;;;4997942;28;20092;-92
2022/09/12 02:16:22;;;;;;;18.13;15.57;;;17.10;99.90;;;;;;4997166;28;20022;-92
2022/09/12 02:18:54;;;;;;;18.52;15.48;;;17.00;99.90;;;;;;4997154;28;20046;-94
2022/09/12 02:21:23;;;;;;;19.88;16.52;;;17.00;99.90;;;;;;4998514;28;20026;-93
2022/09/12 02:23:57;;;;;;;21.02;17.73;;;17.00;99.90;;;;;;4998330;28;20037;-94
2022/09/12 02:26:33;;;;;;;20.25;16.42;;;17.00;99.90;;;;;;4997520;28;20034;-92
2022/09/12 02:28:58;;;;;;;21.05;17.45;;;17.00;99.90;;;;;;4997504;28;20026;-94
2022/09/12 02:31:31;;;;;;;21.17;16.75;;;16.90;99.90;;;;;;4980745;28;20061;-93
2022/09/12 02:34:13;;;;;;;19.45;17.35;;;16.90;99.90;;;;;;4981089;28;20054;-93
2022/09/12 02:36:55;;;;;;;19.67;16.52;;;16.90;99.90;;;;;;4981296;28;20022;-92
2022/09/12 02:39:20;;;;;;;19.83;16.77;;;16.90;99.90;;;;;;4980947;28;20031;-93
2022/09/12 02:41:49;;;;;;;21.70;17.45;;;16.90;99.90;;;;;;4980703;28;20022;-93
2022/09/12 02:44:15;;;;;;;22.75;17.75;;;16.80;99.90;;;;;;5004664;28;20034;-93
2022/09/12 02:46:49;;;;;;;21.02;18.17;;;16.80;99.90;;;;;;4980741;28;20036;-93
2022/09/12 02:49:16;;;;;;;19.85;17.10;;;16.80;99.90;;;;;;4996525;28;20069;-92
2022/09/12 02:51:42;;;;;;;19.73;16.90;;;16.80;99.90;;;;;;4980782;28;20080;-93
2022/09/12 02:54:09;;;;;;;19.63;16.48;;;16.80;99.90;;;;;;4980405;28;20038;-93
2022/09/12 02:56:39;;;;;;;21.20;17.30;;;16.80;99.90;;;;;;4980820;28;20041;-93
2022/09/12 02:59:08;;;;;;;22.80;18.33;;;16.70;99.90;;;;;;4996604;28;20117;-92
2022/09/12 03:01:46;;;;;;;20.17;17.98;;;16.80;99.90;;;;;;4996574;28;20022;-92
2022/09/12 03:04:39;;;;;;;22.48;17.83;;;16.70;99.90;;;;;;4979943;28;20031;-91
2022/09/12 03:07:42;;;;;;;24.65;18.85;;;16.70;99.90;;;;;;4979768;28;20061;-93
2022/09/12 03:10:21;;;;;;;20.05;17.63;;;16.70;99.90;;;;;;4980165;28;20022;-93
2022/09/12 03:13:25;;;;;;;20.45;18.20;;;16.60;99.90;;;;;;4997363;28;20030;-93
2022/09/12 03:15:59;;;;;;;20.48;17.33;;;16.60;99.90;;;;;;4997558;28;20029;-92
2022/09/12 03:18:59;;;;;;;22.80;18.20;;;16.60;99.90;;;;;;4979617;28;20031;-92
2022/09/12 03:21:35;;;;;;;20.88;18.15;;;16.60;99.90;;;;;;4980013;28;20026;-92
2022/09/12 03:24:11;;;;;;;23.73;18.67;;;16.50;99.90;;;;;;4996957;28;20030;-92
2022/09/12 03:26:52;;;;;;;22.95;19.73;;;16.60;99.90;;;;;;4996277;28;20031;-92
2022/09/12 03:29:19;;;;;;;21.83;18.13;;;16.50;99.90;;;;;;4995837;28;20076;-93
2022/09/12 03:31:54;;;;;;;21.35;18.55;;;16.50;99.90;;;;;;4996086;28;20072;-92
2022/09/12 03:34:22;;;;;;;22.20;19.33;;;16.50;99.90;;;;;;4996304;28;20049;-92
2022/09/12 03:36:48;;;;;;;23.35;20.73;;;16.50;99.90;;;;;;4995657;28;20098;-92
2022/09/12 03:39:15;;;;;;;25.63;20.10;;;16.50;99.90;;;;;;4996350;28;20090;-93
2022/09/12 03:41:41;;;;;;;24.67;20.33;;;16.50;99.90;;;;;;4996277;28;20116;-93
2022/09/12 03:44:09;;;;;;;24.13;19.70;;;16.40;99.90;;;;;;4981900;28;20031;-93
2022/09/12 03:46:35;;;;;;;24.45;20.70;;;16.50;99.90;;;;;;4982041;28;20093;-93
2022/09/12 03:49:03;;;;;;;21.75;18.67;;;16.40;99.90;;;;;;4993209;28;20026;-93
2022/09/12 03:51:31;;;;;;;23.77;20.33;;;16.40;99.90;;;;;;4998156;28;20027;-93
2022/09/12 03:53:57;;;;;;;19.92;16.30;;;16.40;99.90;;;;;;5012492;28;20030;-92
2022/09/12 03:56:23;;;;;;;22.73;17.65;;;16.40;99.90;;;;;;5013767;28;20029;-92
2022/09/12 03:58:49;;;;;;;21.42;17.67;;;16.40;99.90;;;;;;5018376;28;20011;-92
2022/09/12 04:01:17;;;;;;;23.92;19.15;;;16.40;99.90;;;;;;4991243;28;20117;-92
2022/09/12 04:03:44;;;;;;;20.35;17.60;;;16.40;99.90;;;;;;4998370;28;20125;-91
2022/09/12 04:06:11;;;;;;;21.05;16.90;;;16.30;99.90;;;;;;4995499;28;20023;-92
2022/09/12 04:08:40;;;;;;;22.85;18.00;;;16.30;99.90;;;;;;4996326;28;20026;-93
2022/09/12 04:11:11;;;;;;;21.80;18.15;;;16.30;99.90;;;;;;4995499;28;20104;-92
2022/09/12 04:13:41;;;;;;;22.50;18.00;;;16.30;99.90;;;;;;4995239;28;20042;-93
2022/09/12 04:16:07;;;;;;;30.02;18.05;;;16.30;99.90;;;;;;4996645;28;20027;-94
2022/09/12 04:18:34;;;;;;;21.15;18.13;;;16.30;99.90;;;;;;4995009;28;20108;-93
2022/09/12 04:21:08;;;;;;;23.00;17.70;;;16.30;99.90;;;;;;4979165;28;20026;-93
2022/09/12 04:23:34;;;;;;;21.83;18.35;;;16.30;99.90;;;;;;4995109;28;20023;-92
2022/09/12 04:26:05;;;;;;;23.30;19.83;;;16.20;99.90;;;;;;4994863;28;20030;-92
2022/09/12 04:28:32;;;;;;;23.95;19.70;;;16.20;99.90;;;;;;4994784;28;20034;-93
2022/09/12 04:31:11;;;;;;;23.27;18.92;;;16.20;99.90;;;;;;4996389;28;20030;-93
2022/09/12 04:33:37;;;;;;;28.10;20.77;;;16.20;99.90;;;;;;4995771;28;20069;-93
2022/09/12 04:36:08;;;;;;;26.85;20.98;;;16.20;99.90;;;;;;4995531;28;20066;-92
2022/09/12 04:38:37;;;;;;;26.98;21.25;;;16.20;99.90;;;;;;4995476;28;20018;-93
2022/09/12 04:41:12;;;;;;;31.77;23.25;;;16.10;99.90;;;;;;4995178;28;20018;-93
2022/09/12 04:43:37;;;;;;;34.30;23.63;;;16.20;99.90;;;;;;4995231;28;20027;-93
2022/09/12 04:46:08;;;;;;;31.00;22.98;;;16.20;99.90;;;;;;4994808;28;20034;-93
2022/09/12 04:48:34;;;;;;;29.65;21.23;;;16.20;99.90;;;;;;4996101;28;20019;-92
2022/09/12 04:51:13;;;;;;;31.77;23.30;;;16.10;99.90;;;;;;4995293;28;20018;-93
2022/09/12 04:53:42;;;;;;;30.10;22.77;;;16.20;99.90;;;;;;4996948;28;20042;-92
2022/09/12 04:56:10;;;;;;;31.33;23.42;;;16.20;99.90;;;;;;4997730;28;20117;-92
2022/09/12 04:58:39;;;;;;;29.23;22.67;;;16.10;99.90;;;;;;4998725;28;20117;-93
2022/09/12 05:01:08;;;;;;;27.85;22.05;;;16.10;99.90;;;;;;4998587;28;20034;-93
2022/09/12 05:03:37;;;;;;;30.30;22.20;;;16.10;99.90;;;;;;5003498;28;20026;-93
2022/09/12 05:06:05;;;;;;;28.13;21.65;;;16.10;99.90;;;;;;5008551;28;20038;-92
2022/09/12 05:08:31;;;;;;;30.15;22.83;;;16.10;99.90;;;;;;5005561;28;20026;-93
2022/09/12 05:11:02;;;;;;;31.45;22.83;;;16.10;99.90;;;;;;5003631;28;20030;-95
2022/09/12 05:13:28;;;;;;;35.33;23.20;;;16.10;99.90;;;;;;5004050;28;20053;-94
2022/09/12 05:15:58;;;;;;;36.25;25.33;;;16.10;99.90;;;;;;5002780;28;20458;-93
2022/09/12 05:18:25;;;;;;;33.90;24.40;;;16.10;99.90;;;;;;5002999;28;20026;-93
2022/09/12 05:20:52;;;;;;;36.58;25.38;;;16.10;99.90;;;;;;4988521;28;20094;-94
2022/09/12 05:23:18;;;;;;;38.72;26.13;;;16.10;99.90;;;;;;5006268;28;20030;-92
2022/09/12 05:25:56;;;;;;;35.10;25.20;;;16.10;99.90;;;;;;4971796;28;20045;-93
2022/09/12 05:28:26;;;;;;;38.95;25.90;;;16.10;99.90;;;;;;4986300;28;20022;-92
2022/09/12 05:31:15;;;;;;;35.53;23.90;;;16.10;99.90;;;;;;5002731;28;20470;-92
2022/09/12 05:33:43;;;;;;;33.47;24.08;;;16.10;99.90;;;;;;5003394;28;20449;-93
2022/09/12 05:36:17;;;;;;;37.45;25.00;;;16.10;99.90;;;;;;5002397;28;20061;-93
2022/09/12 05:38:43;;;;;;;38.55;25.45;;;16.10;99.90;;;;;;5002277;28;20030;-93
2022/09/12 05:41:21;;;;;;;38.97;25.20;;;16.10;99.90;;;;;;5003627;28;20478;-93
2022/09/12 05:43:56;;;;;;;37.50;26.23;;;16.10;99.90;;;;;;5003099;28;20100;-93
2022/09/12 05:46:26;;;;;;;41.30;26.77;;;16.10;99.90;;;;;;5006018;28;20053;-90
2022/09/12 05:48:53;;;;;;;41.38;27.13;;;16.10;99.90;;;;;;5003694;28;20030;-93
2022/09/12 05:51:33;;;;;;;43.25;27.50;;;16.10;99.90;;;;;;5001896;28;20060;-93
2022/09/12 05:54:02;;;;;;;45.22;27.55;;;16.10;99.90;;;;;;5002545;28;20081;-94
2022/09/12 05:56:38;;;;;;;47.50;29.17;;;16.10;99.90;;;;;;5002466;28;20026;-93
2022/09/12 05:59:11;;;;;;;39.88;26.67;;;16.10;99.90;;;;;;5002344;28;20022;-93
2022/09/12 06:01:37;;;;;;;44.13;26.48;;;16.10;99.90;;;;;;5004281;28;20029;-92
2022/09/12 06:04:05;;;;;;;48.25;28.85;;;16.10;99.90;;;;;;5002479;28;20034;-93
2022/09/12 06:06:35;;;;;;;37.55;26.48;;;16.10;99.90;;;;;;5002582;28;20026;-94
2022/09/12 06:09:06;;;;;;;43.03;26.83;;;16.10;99.90;;;;;;5003029;28;20018;-93
2022/09/12 06:11:34;;;;;;;46.65;26.60;;;16.20;99.90;;;;;;4971321;28;20060;-94
2022/09/12 06:14:00;;;;;;;45.58;28.20;;;16.20;99.90;;;;;;5004942;28;20113;-92
2022/09/12 06:16:38;;;;;;;44.85;28.10;;;16.20;99.90;;;;;;5005839;28;20030;-91
2022/09/12 06:19:15;;;;;;;39.20;26.90;;;16.20;99.90;;;;;;5009848;28;20042;-93
2022/09/12 06:21:41;;;;;;;43.72;27.15;;;16.20;99.90;;;;;;5018864;28;20018;-93
2022/09/12 06:24:07;;;;;;;41.95;27.48;;;16.20;99.90;;;;;;5017119;28;20034;-93
2022/09/12 06:26:33;;;;;;;51.80;29.42;;;16.20;99.90;;;;;;5020267;28;20022;-92
2022/09/12 06:29:00;;;;;;;47.95;30.52;;;16.20;99.90;;;;;;5017437;28;20022;-93
2022/09/12 06:31:28;;;;;;;47.95;30.40;;;16.20;99.90;;;;;;5019499;28;20453;-93
2022/09/12 06:33:56;;;;;;;49.85;29.92;;;16.20;99.90;;;;;;5020674;28;20082;-92
2022/09/12 06:36:25;;;;;;;48.00;31.75;;;16.20;99.90;;;;;;5019893;28;20033;-93
2022/09/12 06:38:56;;;;;;;52.00;31.70;;;16.20;99.90;;;;;;5004230;28;20014;-94
2022/09/12 06:41:22;;;;;;;;;;;16.30;99.90;;;;;;5017276;28;20058;-94
2022/09/12 06:43:51;;;;;;;53.80;32.53;;;16.20;99.90;;;;;;5020931;28;19922;-92
2022/09/12 06:46:17;;;;;;;58.20;35.67;;;16.20;99.90;;;;;;5003189;28;20010;-93
2022/09/12 06:48:49;;;;;;;62.13;34.55;;;16.20;99.90;;;;;;5019225;28;20029;-92
2022/09/12 06:51:17;;;;;;;59.15;35.65;;;16.20;99.90;;;;;;5004781;28;20010;-92
2022/09/12 06:53:44;;;;;;;59.40;35.25;;;16.30;99.90;;;;;;5019907;28;20033;-92
2022/09/12 06:56:13;;;;;;;66.82;36.85;;;16.20;99.90;;;;;;5020091;28;20031;-93
2022/09/12 06:58:40;;;;;;;62.05;35.10;;;16.20;99.90;;;;;;5020057;28;20029;-90
2022/09/12 07:01:10;;;;;;;56.33;34.60;;;16.20;99.90;;;;;;5020655;28;20011;-92
2022/09/12 07:03:37;;;;;;;59.30;36.05;;;16.20;99.90;;;;;;5003549;28;20052;-89
2022/09/12 07:06:13;;;;;;;56.92;34.22;;;16.20;99.90;;;;;;5020127;28;20014;-91
2022/09/12 07:08:39;;;;;;;61.22;34.35;;;16.20;99.90;;;;;;5019405;28;20027;-91
2022/09/12 07:11:14;;;;;;;60.95;34.70;;;16.20;99.90;;;;;;5019793;28;20022;-93
2022/09/12 07:13:41;;;;;;;60.67;35.28;;;16.30;99.90;;;;;;5017659;28;20022;-93
2022/09/12 07:16:10;;;;;;;60.17;36.17;;;16.30;99.90;;;;;;5017613;28;20121;-93
2022/09/12 07:18:38;;;;;;;63.05;37.25;;;16.30;99.90;;;;;;5018606;28;20011;-92
2022/09/12 07:21:08;;;;;;;66.32;36.80;;;16.40;99.90;;;;;;5019578;28;20041;-93
2022/09/12 07:23:39;;;;;;;58.63;35.67;;;16.40;99.90;;;;;;5018773;28;20030;-90
2022/09/12 07:26:10;;;;;;;62.05;36.38;;;16.40;99.90;;;;;;5019649;28;20011;-93
2022/09/12 07:28:36;;;;;;;61.78;36.42;;;16.40;99.90;;;;;;5016555;28;20102;-91
2022/09/12 07:31:11;;;;;;;64.22;37.35;;;16.40;99.90;;;;;;5011561;28;20026;-93
2022/09/12 07:33:38;;;;;;;62.78;36.65;;;16.50;99.90;;;;;;5015533;28;20054;-92
2022/09/12 07:36:16;;;;;;;70.82;38.40;;;16.50;99.90;;;;;;5016055;28;20033;-93
2022/09/12 07:38:43;;;;;;;60.05;37.45;;;16.50;99.90;;;;;;5018082;28;20030;-92
2022/09/12 07:41:17;;;;;;;62.08;37.15;;;16.50;99.90;;;;;;5013932;28;20053;-93
2022/09/12 07:43:43;;;;;;;65.72;36.33;;;16.50;99.90;;;;;;5014050;28;20018;-93
2022/09/12 07:46:09;;;;;;;59.92;35.00;;;16.50;99.90;;;;;;5014182;28;20030;-93
2022/09/12 07:48:36;;;;;;;62.22;37.80;;;16.60;99.90;;;;;;5006319;28;20462;-89
2022/09/12 07:51:17;;;;;;;;;;;;;;;;;;;;;
2022/09/12 07:53:44;;;;;;;53.40;32.67;;;16.70;99.90;;;;;;4998060;28;20030;-91
2022/09/12 07:56:18;;;;;;;62.60;35.35;;;16.70;99.90;;;;;;4980835;28;20030;-92
2022/09/12 07:58:50;;;;;;;55.83;33.33;;;16.70;99.90;;;;;;4996137;28;20459;-93
2022/09/12 08:01:28;;;;;;;62.88;35.70;;;16.80;99.90;;;;;;5000922;28;20026;-92
2022/09/12 08:03:57;;;;;;;60.38;35.33;;;16.80;99.90;;;;;;4986722;28;20113;-92
2022/09/12 08:06:25;;;;;;;60.60;35.00;;;16.80;99.90;;;;;;5013676;28;20034;-92
2022/09/12 08:09:00;;;;;;;62.20;34.42;;;16.90;99.90;;;;;;4998540;28;20030;-92
2022/09/12 08:11:27;;;;;;;58.42;34.78;;;16.90;99.90;;;;;;4999309;28;20109;-92
2022/09/12 08:13:54;;;;;;;62.55;35.80;;;17.00;99.90;;;;;;4980584;28;20094;-91
2022/09/12 08:16:22;;;;;;;68.68;34.38;;;17.00;99.90;;;;;;4995355;28;20060;-92
2022/09/12 08:18:49;;;;;;;56.53;33.70;;;17.10;99.90;;;;;;4995228;28;20038;-91
2022/09/12 08:21:24;;;;;;;60.88;32.22;;;17.10;99.90;;;;;;4996312;28;20030;-92
2022/09/12 08:23:55;;;;;;;52.03;33.72;;;17.20;99.90;;;;;;4995857;28;20058;-92
2022/09/12 08:26:23;;;;;;;;;;;17.20;99.90;;;;;;4999011;28;20454;-92
2022/09/12 08:28:52;;;;;;;50.20;32.15;;;17.30;99.90;;;;;;4966659;28;19956;-92
2022/09/12 08:31:20;;;;;;;47.22;29.13;;;17.30;99.90;;;;;;5002470;28;20027;-91
2022/09/12 08:33:46;;;;;;;46.38;30.17;;;17.40;99.90;;;;;;5002765;28;20037;-92
2022/09/12 08:36:21;;;;;;;46.53;30.55;;;17.40;99.90;;;;;;4997827;28;20022;-93
2022/09/12 08:38:49;;;;;;;45.42;30.30;;;17.50;99.90;;;;;;4996808;28;20019;-92
2022/09/12 08:41:29;;;;;;;42.88;28.67;;;17.60;99.90;;;;;;4997367;28;20093;-93
2022/09/12 08:44:24;;;;;;;43.03;28.45;;;17.60;99.90;;;;;;4994691;28;20039;-92
2022/09/12 08:47:04;;;;;;;44.03;27.67;;;17.70;99.90;;;;;;4960901;28;20049;-91
2022/09/12 08:49:38;;;;;;;49.42;28.23;;;17.80;99.90;;;;;;4978281;28;20027;-93
2022/09/12 08:52:18;;;;;;;41.55;26.88;;;17.80;99.90;;;;;;4994597;28;20443;-93
2022/09/12 08:54:49;;;;;;;40.40;26.23;;;17.90;99.90;;;;;;4995127;28;20031;-94
2022/09/12 08:57:17;;;;;;;38.13;25.70;;;18.00;99.90;;;;;;4995256;28;20463;-94
2022/09/12 08:59:47;;;;;;;34.72;23.67;;;18.10;99.90;;;;;;4995093;28;20061;-94
2022/09/12 09:02:34;;;;;;;39.08;25.50;;;18.10;99.90;;;;;;4995029;28;20113;-94
2022/09/12 09:05:16;;;;;;;36.85;25.40;;;18.20;99.90;;;;;;4995699;28;20027;-93
2022/09/12 09:08:07;;;;;;;36.13;24.98;;;18.40;99.90;;;;;;4995118;28;20027;-92
2022/09/12 09:11:00;;;;;;;35.58;23.33;;;18.40;99.90;;;;;;4977916;28;20026;-92
2022/09/12 09:16:35;;;;;;;25.80;20.02;;;18.60;99.90;;;;;;4996621;28;20053;-93
2022/09/12 09:19:08;;;;;;;28.30;19.63;;;18.60;99.90;;;;;;4978419;28;20042;-93
2022/09/12 09:21:46;;;;;;;25.38;19.63;;;18.70;99.90;;;;;;4995906;28;20497;-93
2022/09/12 09:24:17;;;;;;;25.65;19.20;;;18.80;99.90;;;;;;4995368;28;20296;-93
2022/09/12 09:26:50;;;;;;;25.88;19.17;;;18.90;99.90;;;;;;4996007;28;20030;-91
2022/09/12 09:29:25;;;;;;;25.55;18.70;;;19.00;99.90;;;;;;4998162;28;20034;-90
2022/09/12 09:31:54;;;;;;;26.58;19.40;;;19.10;99.90;;;;;;4997563;28;20023;-91
2022/09/12 09:34:30;;;;;;;26.27;18.35;;;19.20;99.90;;;;;;4995215;28;20023;-94
2022/09/12 09:37:37;;;;;;;27.30;19.27;;;19.30;99.90;;;;;;4996329;28;20022;-91
2022/09/12 09:40:37;;;;;;;28.02;18.52;;;19.30;99.90;;;;;;4966719;28;20181;-92
2022/09/12 09:43:30;;;;;;;21.20;15.07;;;19.40;99.90;;;;;;4979303;28;20034;-91
2022/09/12 09:45:58;;;;;;;18.90;14.88;;;19.50;99.90;;;;;;4975643;28;20577;-91
2022/09/12 09:48:31;;;;;;;17.38;13.65;;;19.60;99.90;;;;;;4996944;28;20061;-91
2022/09/12 09:51:10;;;;;;;19.45;13.60;;;19.70;99.90;;;;;;4980145;28;20033;-92
2022/09/12 09:53:52;;;;;;;16.33;11.63;;;19.80;99.90;;;;;;4996932;28;20033;-91
2022/09/12 09:56:27;;;;;;;13.63;10.32;;;19.90;99.90;;;;;;4999950;28;20026;-91
2022/09/12 09:58:53;;;;;;;12.65;9.65;;;20.00;99.90;;;;;;4984093;28;20087;-92
2022/09/12 10:01:19;;;;;;;16.33;10.73;;;20.10;99.90;;;;;;4999528;28;20038;-93
2022/09/12 10:03:58;;;;;;;15.65;10.60;;;20.20;99.90;;;;;;4983634;28;20482;-92
2022/09/12 10:06:35;;;;;;;14.00;10.45;;;20.30;99.90;;;;;;4985348;28;20030;-91
2022/09/12 10:09:17;;;;;;;12.57;10.45;;;20.40;99.90;;;;;;5004998;28;20038;-93
2022/09/12 10:11:46;;;;;;;15.68;10.82;;;20.50;99.90;;;;;;5009022;28;20064;-92
2022/09/12 10:14:36;;;;;;;15.48;11.50;;;20.60;99.90;;;;;;5004902;28;20053;-91
2022/09/12 10:17:22;;;;;;;16.05;11.13;;;20.70;99.90;;;;;;5002357;28;20018;-93
2022/09/12 10:19:47;;;;;;;13.90;11.13;;;20.70;99.90;;;;;;4982678;28;20054;-92
2022/09/12 10:22:19;;;;;;;13.30;10.50;;;20.80;99.90;;;;;;4980756;28;20034;-92
2022/09/12 10:24:51;;;;;;;14.68;11.52;;;20.90;99.90;;;;;;4997823;28;20466;-93
2022/09/12 10:27:34;;;;;;;16.77;10.18;;;21.00;99.90;;;;;;4999926;28;20104;-93
2022/09/12 10:30:04;;;;;;;13.05;10.23;;;21.10;99.90;;;;;;4999716;28;20470;-94
2022/09/12 10:32:35;;;;;;;11.88;9.80;;;21.20;99.90;;;;;;4998245;28;20025;-92
2022/09/12 10:35:26;;;;;;;10.60;8.32;;;21.30;99.90;;;;;;4998847;28;20038;-93
2022/09/12 10:38:13;;;;;;;14.73;8.70;;;21.30;99.90;;;;;;4998345;28;20073;-92
2022/09/12 10:40:44;;;;;;;12.07;9.82;;;21.50;99.90;;;;;;4997373;28;20022;-92
2022/09/12 10:43:26;;;;;;;12.40;9.32;;;21.50;99.90;;;;;;4997280;28;20459;-93
2022/09/12 10:46:19;;;;;;;14.48;9.93;;;21.70;99.90;;;;;;4997200;28;20467;-93
2022/09/12 10:48:49;;;;;;;10.60;7.97;;;21.70;99.90;;;;;;4997287;28;20458;-93
2022/09/12 10:51:26;;;;;;;12.50;8.40;;;21.80;99.90;;;;;;4997150;28;20022;-92
2022/09/12 10:54:03;;;;;;;10.43;8.40;;;21.90;99.90;;;;;;4997373;28;20085;-94
2022/09/12 10:56:50;;;;;;;9.30;7.97;;;22.00;99.90;;;;;;4997044;28;20073;-93
2022/09/12 10:59:33;;;;;;;12.07;8.55;;;22.10;99.90;;;;;;4996982;28;20036;-94
2022/09/12 11:02:10;;;;;;;11.00;8.93;;;22.20;99.90;;;;;;4997650;28;20036;-92
2022/09/12 11:04:39;;;;;;;13.93;8.40;;;22.30;99.90;;;;;;4998197;28;20030;-93
2022/09/12 11:07:35;;;;;;;11.73;7.60;;;22.40;99.80;;;;;;4980325;28;20049;-93
2022/09/12 11:10:28;;;;;;;;;;;;;;;;;;;;;
2022/09/12 11:13:24;;;;;;;12.48;8.95;;;22.60;99.00;;;;;;4998215;28;20397;-93
2022/09/12 11:16:29;;;;;;;12.90;9.80;;;22.70;98.50;;;;;;4981261;28;20026;-93
2022/09/12 11:19:25;;;;;;;10.63;8.60;;;22.70;99.20;;;;;;4999674;28;20462;-92
2022/09/12 11:22:04;;;;;;;9.45;8.20;;;22.80;99.00;;;;;;5011628;28;20019;-92
2022/09/12 11:25:07;;;;;;;8.00;6.68;;;22.90;97.80;;;;;;5000369;28;20027;-94
2022/09/12 11:27:55;;;;;;;8.02;5.53;;;23.00;95.50;;;;;;5010884;28;20031;-93
2022/09/12 11:30:21;;;;;;;7.88;5.95;;;23.10;96.70;;;;;;5011445;28;20033;-92
2022/09/12 11:32:55;;;;;;;6.75;5.70;;;23.20;96.50;;;;;;4996139;28;20031;-92
2022/09/12 11:35:26;;;;;;;9.10;5.80;;;23.30;95.30;;;;;;4991706;28;20033;-93
2022/09/12 11:38:29;;;;;;;8.95;5.55;;;23.40;95.90;;;;;;5002849;28;20053;-92
2022/09/12 11:41:06;;;;;;;6.95;5.50;;;23.50;95.30;;;;;;4980370;28;20085;-91
2022/09/12 11:43:43;;;;;;;7.60;5.15;;;23.50;94.70;;;;;;4997939;28;20026;-90
2022/09/12 11:46:21;;;;;;;8.82;5.72;;;23.60;93.80;;;;;;4981594;28;20030;-92
2022/09/12 11:49:15;;;;;;;8.65;6.90;;;23.70;94.60;;;;;;5000132;28;20029;-94
2022/09/12 11:51:47;;;;;;;6.65;4.90;;;23.80;94.00;;;;;;4983795;28;20031;-91
2022/09/12 11:54:49;;;;;;;8.70;5.18;;;23.90;94.20;;;;;;4993821;28;20038;-92
2022/09/12 11:57:27;;;;;;;9.82;5.70;;;24.00;93.30;;;;;;4972859;28;20033;-92
2022/09/12 12:00:25;;;;;;;8.95;5.75;;;24.10;94.10;;;;;;4982158;28;20052;-92
2022/09/12 12:03:13;;;;;;;8.18;5.53;;;24.20;93.20;;;;;;4997145;28;20466;-93
2022/09/12 12:05:53;;;;;;;9.07;6.35;;;24.30;93.30;;;;;;4999261;28;20077;-92
2022/09/12 12:08:32;;;;;;;9.00;5.05;;;24.30;93.40;;;;;;4979969;28;20023;-93
2022/09/12 12:11:03;;;;;;;8.43;5.18;;;24.40;94.20;;;;;;4996839;28;20080;-92
2022/09/12 12:13:38;;;;;;;6.82;5.43;;;24.50;92.90;;;;;;4995273;28;20026;-92
2022/09/12 12:16:20;;;;;;;7.03;4.72;;;24.60;92.30;;;;;;4995778;28;20022;-93
2022/09/12 12:18:54;;;;;;;7.60;5.35;;;24.60;91.90;;;;;;4994588;28;20065;-92
2022/09/12 12:21:38;;;;;;;7.75;4.93;;;24.70;92.30;;;;;;4995482;28;20117;-92
2022/09/12 12:24:06;;;;;;;6.65;4.50;;;24.80;91.80;;;;;;4995342;28;20034;-91
2022/09/12 12:26:40;;;;;;;4.78;3.58;;;24.90;92.30;;;;;;4979345;28;20093;-93
2022/09/12 12:29:16;;;;;;;5.30;3.80;;;24.90;91.80;;;;;;4979061;28;20033;-92
2022/09/12 12:32:18;;;;;;;7.00;4.15;;;25.00;91.70;;;;;;4979418;28;20054;-93
2022/09/12 12:34:46;;;;;;;5.40;4.20;;;25.00;85.70;;;;;;4995995;28;20037;-92
2022/09/12 12:37:18;;;;;;;7.22;3.95;;;25.10;90.00;;;;;;4978400;28;20031;-91
2022/09/12 12:39:46;;;;;;;7.53;4.85;;;25.10;89.20;;;;;;4978763;28;20026;-93
2022/09/12 12:42:31;;;;;;;8.90;5.07;;;25.10;88.10;;;;;;4978701;28;20053;-92
2022/09/12 12:44:58;;;;;;;6.43;4.80;;;25.20;87.50;;;;;;4979271;28;20026;-92
2022/09/12 12:47:45;;;;;;;5.45;4.07;;;25.20;88.70;;;;;;4978769;28;20030;-93
2022/09/12 12:50:10;;;;;;;6.13;4.20;;;25.30;86.70;;;;;;4994816;28;20026;-93
2022/09/12 12:53:02;;;;;;;8.88;5.07;;;25.30;87.60;;;;;;4996060;28;20031;-93
2022/09/12 12:55:43;;;;;;;5.88;4.65;;;25.30;87.20;;;;;;4995976;28;20034;-92
2022/09/12 12:58:24;;;;;;;;;;;25.40;86.00;;;;;;4996149;28;20073;-92
2022/09/12 13:01:05;;;;;;;7.43;5.07;;;25.50;88.00;;;;;;4979314;28;19906;-92
2022/09/12 13:03:33;;;;;;;8.82;5.80;;;25.50;87.30;;;;;;4978850;28;20081;-92
2022/09/12 13:06:06;;;;;;;6.90;5.40;;;25.50;87.30;;;;;;4996253;28;20069;-92
2022/09/12 13:08:35;;;;;;;7.50;5.40;;;25.50;87.80;;;;;;4994983;28;20030;-92
2022/09/12 13:11:14;;;;;;;7.40;4.85;;;25.60;87.20;;;;;;4996021;28;20027;-94
2022/09/12 13:13:57;;;;;;;5.57;4.28;;;25.60;86.00;;;;;;4996206;28;20026;-93
2022/09/12 13:16:31;;;;;;;7.80;4.20;;;25.70;83.50;;;;;;4994640;28;20121;-93